createdAt,value
2019-04-22T00:02:17.494Z,13.30
2019-04-22T00:06:00.390Z,13.20
2019-04-22T00:09:30.926Z,13.20
2019-04-22T00:13:02.882Z,13.10
2019-04-22T00:16:32.058Z,13.00
2019-04-22T00:19:55.606Z,12.90
2019-04-22T00:23:13.184Z,12.70
2019-04-22T00:26:44.406Z,12.60
2019-04-22T00:30:15.481Z,12.50
2019-04-22T00:33:31.251Z,12.40
2019-04-22T00:36:54.834Z,12.30
2019-04-22T00:40:21.347Z,12.20
2019-04-22T00:43:51.108Z,12.10
2019-04-22T00:47:16.386Z,12.10
2019-04-22T00:50:44.321Z,12.00
2019-04-22T00:54:03.819Z,11.90
2019-04-22T00:57:28.449Z,11.80
2019-04-22T01:00:54.225Z,11.70
2019-04-22T01:04:31.142Z,11.60
2019-04-22T01:07:44.565Z,11.60
2019-04-22T01:11:21.449Z,11.60
2019-04-22T01:14:38.280Z,11.50
2019-04-22T01:17:57.882Z,11.50
2019-04-22T01:21:36.376Z,11.40
2019-04-22T01:24:50.257Z,11.40
2019-04-22T01:28:10.873Z,11.30
2019-04-22T01:31:23.945Z,11.30
2019-04-22T01:34:57.591Z,11.20
2019-04-22T01:38:31.353Z,11.10
2019-04-22T01:42:10.729Z,11.00
2019-04-22T01:45:31.300Z,11.00
2019-04-22T01:48:54.280Z,10.90
2019-04-22T01:52:15.765Z,10.90
2019-04-22T01:55:45.328Z,10.90
2019-04-22T01:58:59.014Z,10.70
2019-04-22T02:02:40.108Z,10.70
2019-04-22T02:06:02.349Z,10.70
2019-04-22T02:12:48.367Z,10.50
2019-04-22T02:16:15.147Z,10.50
2019-04-22T02:19:31.173Z,10.40
2019-04-22T02:23:45.845Z,10.30
2019-04-22T02:26:53.083Z,10.30
2019-04-22T02:30:05.826Z,10.20
2019-04-22T02:34:00.799Z,10.10
2019-04-22T02:37:02.852Z,10.20
2019-04-22T02:40:50.718Z,10.10
2019-04-22T02:43:59.581Z,10.00
2019-04-22T02:47:27.604Z,10.00
2019-04-22T02:50:43.774Z,10.00
2019-04-22T02:57:45.058Z,9.80
2019-04-22T03:01:05.954Z,9.80
2019-04-22T03:08:02.447Z,9.70
2019-04-22T03:11:19.179Z,9.70
2019-04-22T03:14:41.353Z,9.80
2019-04-22T03:18:09.725Z,9.70
2019-04-22T03:21:34.317Z,9.70
2019-04-22T03:25:23.661Z,9.60
2019-04-22T03:28:33.087Z,9.60
2019-04-22T03:39:06.848Z,9.50
2019-04-22T03:45:32.216Z,9.50
2019-04-22T03:49:23.121Z,9.40
2019-04-22T03:55:57.523Z,9.30
2019-04-22T03:59:29.095Z,9.20
2019-04-22T04:06:05.311Z,9.20
2019-04-22T04:09:42.617Z,9.10
2019-04-22T04:13:02.863Z,9.10
2019-04-22T04:16:29.978Z,9.10
2019-04-22T04:30:13.978Z,9.00
2019-04-22T04:33:51.856Z,9.00
2019-04-22T04:37:07.482Z,9.00
2019-04-22T04:40:28.798Z,8.90
2019-04-22T04:47:32.934Z,8.90
2019-04-22T04:57:56.974Z,8.90
2019-04-22T05:01:03.297Z,9.00
2019-04-22T05:04:25.538Z,9.00
2019-04-22T05:07:51.937Z,9.10
2019-04-22T05:11:16.098Z,9.10
2019-04-22T05:14:28.752Z,9.30
2019-04-22T05:24:56.884Z,9.60
2019-04-22T05:28:10.328Z,9.70
2019-04-22T05:31:37.198Z,9.80
2019-04-22T05:35:01.333Z,9.90
2019-04-22T05:38:33.194Z,10.00
2019-04-22T05:41:54.854Z,10.20
2019-04-22T05:45:23.146Z,10.30
2019-04-22T05:48:46.288Z,10.40
2019-04-22T05:52:11.110Z,10.60
2019-04-22T05:55:38.650Z,10.80
2019-04-22T06:02:45.635Z,11.10
2019-04-22T06:05:47.409Z,11.30
2019-04-22T06:09:16.972Z,11.50
2019-04-22T06:12:40.098Z,11.70
2019-04-22T06:16:09.351Z,11.90
2019-04-22T06:19:34.881Z,12.10
2019-04-22T06:26:46.267Z,12.50
2019-04-22T06:29:50.785Z,12.80
2019-04-22T06:36:45.212Z,13.30
2019-04-22T06:40:06.168Z,13.50
2019-04-22T06:47:00.115Z,14.00
2019-04-22T06:50:26.149Z,14.30
2019-04-22T06:53:47.283Z,14.50
2019-04-22T06:57:11.586Z,14.70
2019-04-22T07:00:36.712Z,14.90
2019-04-22T07:07:26.759Z,15.20
2019-04-22T07:10:50.742Z,15.30
2019-04-22T07:14:28.586Z,15.50
2019-04-22T07:21:05.940Z,15.80
2019-04-22T07:24:41.808Z,16.00
2019-04-22T07:28:01.408Z,16.10
2019-04-22T07:31:26.842Z,16.10
2019-04-22T07:34:52.460Z,16.10
2019-04-22T07:38:25.526Z,16.20
2019-04-22T07:41:49.023Z,16.30
2019-04-22T07:45:10.207Z,16.40
2019-04-22T07:48:43.413Z,16.40
2019-04-22T07:51:56.175Z,16.50
2019-04-22T07:55:30.586Z,16.60
2019-04-22T07:58:53.658Z,16.70
2019-04-22T08:02:16.037Z,16.80
2019-04-22T08:05:51.926Z,16.90
2019-04-22T08:12:51.922Z,17.10
2019-04-22T08:15:58.114Z,17.20
2019-04-22T08:22:51.048Z,17.40
2019-04-22T08:26:16.771Z,17.50
2019-04-22T08:29:46.955Z,17.70
2019-04-22T08:33:05.123Z,17.90
2019-04-22T08:36:32.346Z,18.20
2019-04-22T08:40:04.537Z,18.30
2019-04-22T08:43:26.796Z,18.50
2019-04-22T08:47:04.413Z,18.70
2019-04-22T08:50:16.500Z,18.90
2019-04-22T08:53:45.403Z,19.10
2019-04-22T08:56:56.940Z,19.20
2019-04-22T09:00:44.572Z,19.50
2019-04-22T09:03:52.463Z,19.80
2019-04-22T09:07:20.931Z,20.00
2019-04-22T09:11:07.770Z,20.20
2019-04-22T09:17:28.860Z,20.60
2019-04-22T09:20:58.823Z,20.80
2019-04-22T09:27:48.417Z,21.30
2019-04-22T09:31:11.803Z,21.60
2019-04-22T09:34:35.192Z,21.90
2019-04-22T09:38:12.064Z,22.10
2019-04-22T09:41:27.139Z,22.40
2019-04-22T09:45:06.055Z,22.80
2019-04-22T09:51:46.172Z,23.60
2019-04-22T09:58:31.687Z,24.80
2019-04-22T10:02:13.387Z,26.30
2019-04-22T10:05:21.179Z,27.60
2019-04-22T10:09:01.734Z,28.90
2019-04-22T10:12:19.086Z,29.90
2019-04-22T10:15:39.646Z,31.10
2019-04-22T10:19:04.204Z,31.70
2019-04-22T10:22:35.004Z,32.60
2019-04-22T10:25:57.112Z,33.10
2019-04-22T10:29:43.902Z,33.70
2019-04-22T10:33:03.005Z,34.10
2019-04-22T10:35:47.598Z,34.70
2019-04-22T10:39:12.555Z,34.60
2019-04-22T10:42:43.438Z,33.40
2019-04-22T10:46:08.108Z,32.90
2019-04-22T10:49:31.536Z,32.00
2019-04-22T10:52:55.344Z,31.70
2019-04-22T10:56:22.981Z,31.90
2019-04-22T10:59:46.863Z,32.00
2019-04-22T11:03:12.055Z,32.20
2019-04-22T11:06:41.006Z,32.00
2019-04-22T11:10:22.806Z,32.30
2019-04-22T11:13:31.629Z,33.20
2019-04-22T11:16:58.191Z,34.30
2019-04-22T11:20:21.775Z,35.20
2019-04-22T11:23:45.120Z,35.70
2019-04-22T11:27:08.402Z,36.50
2019-04-22T11:30:32.397Z,37.40
2019-04-22T11:33:56.691Z,38.30
2019-04-22T11:37:20.765Z,39.00
2019-04-22T11:40:49.950Z,40.20
2019-04-22T11:44:09.598Z,41.00
2019-04-22T11:47:33.371Z,40.80
2019-04-22T11:50:57.770Z,40.60
2019-04-22T11:54:22.982Z,40.80
2019-04-22T11:57:47.606Z,41.00
2019-04-22T12:01:12.666Z,41.10
2019-04-22T12:04:36.063Z,41.50
2019-04-22T12:08:03.007Z,41.50
2019-04-22T12:11:26.364Z,41.40
2019-04-22T12:14:50.085Z,41.70
2019-04-22T12:18:15.168Z,41.70
2019-04-22T12:21:39.367Z,41.70
2019-04-22T12:25:04.134Z,42.40
2019-04-22T12:28:28.710Z,42.40
2019-04-22T12:31:51.871Z,42.60
2019-04-22T12:35:17.755Z,42.40
2019-04-22T12:38:41.804Z,42.60
2019-04-22T12:42:06.195Z,42.90
2019-04-22T12:45:31.925Z,43.80
2019-04-22T12:48:56.257Z,44.00
2019-04-22T12:52:26.655Z,43.80
2019-04-22T12:55:45.930Z,43.90
2019-04-22T12:59:09.719Z,43.60
2019-04-22T13:02:33.182Z,43.20
2019-04-22T13:05:57.548Z,42.90
2019-04-22T13:09:21.242Z,41.80
2019-04-22T13:12:44.756Z,42.40
2019-04-22T13:16:09.033Z,42.90
2019-04-22T13:19:33.874Z,43.60
2019-04-22T13:22:57.107Z,43.80
2019-04-22T13:26:21.116Z,44.40
2019-04-22T13:29:46.567Z,45.70
2019-04-22T13:33:10.735Z,46.30
2019-04-22T13:36:34.640Z,46.30
2019-04-22T13:40:05.381Z,46.20
2019-04-22T13:43:34.745Z,45.80
2019-04-22T13:47:14.543Z,45.60
2019-04-22T13:57:32.815Z,47.70
2019-04-22T14:00:42.559Z,47.60
2019-04-22T14:04:32.553Z,47.50
2019-04-22T14:07:57.572Z,47.60
2019-04-22T14:11:34.155Z,46.70
2019-04-22T14:14:49.081Z,46.80
2019-04-22T14:18:12.867Z,47.00
2019-04-22T14:21:36.792Z,47.10
2019-04-22T14:25:02.877Z,46.40
2019-04-22T14:29:05.962Z,46.50
2019-04-22T14:32:32.349Z,46.30
2019-04-22T14:35:56.633Z,46.00
2019-04-22T14:39:19.888Z,45.80
2019-04-22T14:43:00.590Z,45.80
2019-04-22T14:46:35.983Z,45.80
2019-04-22T14:49:54.275Z,46.10
2019-04-22T14:53:21.037Z,46.30
2019-04-22T14:56:26.561Z,46.40
2019-04-22T14:59:50.177Z,46.60
2019-04-22T15:03:13.558Z,46.20
2019-04-22T15:06:37.952Z,46.60
2019-04-22T15:10:01.950Z,46.50
2019-04-22T15:13:25.396Z,46.20
2019-04-22T15:17:09.000Z,46.20
2019-04-22T15:20:41.975Z,46.80
2019-04-22T15:24:25.098Z,46.30
2019-04-22T15:27:51.074Z,45.80
2019-04-22T15:31:15.275Z,46.10
2019-04-22T15:34:39.501Z,45.70
2019-04-22T15:38:04.573Z,45.70
2019-04-22T15:41:30.415Z,46.20
2019-04-22T15:44:53.874Z,46.40
2019-04-22T15:48:17.117Z,45.70
2019-04-22T15:51:40.926Z,45.50
2019-04-22T15:55:04.863Z,44.70
2019-04-22T15:58:30.260Z,44.50
2019-04-22T16:01:58.168Z,44.40
2019-04-22T16:05:18.359Z,44.10
2019-04-22T16:08:41.457Z,43.80
2019-04-22T16:12:16.191Z,43.60
2019-04-22T16:15:30.739Z,43.70
2019-04-22T16:18:54.356Z,43.20
2019-04-22T16:22:19.728Z,42.60
2019-04-22T16:25:56.042Z,41.20
2019-04-22T16:29:19.450Z,38.30
2019-04-22T16:32:43.519Z,36.20
2019-04-22T16:36:07.251Z,34.60
2019-04-22T16:39:32.967Z,33.30
2019-04-22T16:42:59.265Z,32.60
2019-04-22T16:46:21.815Z,31.70
2019-04-22T16:49:45.697Z,31.00
2019-04-22T16:53:10.218Z,30.70
2019-04-22T16:56:35.650Z,30.20
2019-04-22T17:00:00.533Z,29.90
2019-04-22T17:03:42.819Z,29.70
2019-04-22T17:07:12.363Z,29.80
2019-04-22T17:10:35.727Z,29.20
2019-04-22T17:13:59.399Z,28.50
2019-04-22T17:17:24.515Z,27.90
2019-04-22T17:20:48.736Z,27.50
2019-04-22T17:24:12.084Z,27.10
2019-04-22T17:27:35.272Z,26.70
2019-04-22T17:31:01.793Z,26.30
2019-04-22T17:34:27.529Z,26.10
2019-04-22T17:38:01.758Z,25.80
2019-04-22T17:41:33.115Z,25.50
2019-04-22T17:45:38.919Z,25.20
2019-04-22T17:49:04.348Z,25.00
2019-04-22T17:52:30.371Z,24.70
2019-04-22T17:56:00.606Z,24.50
2019-04-22T17:59:25.038Z,24.30
2019-04-22T18:02:45.875Z,24.10
2019-04-22T18:05:59.550Z,23.90
2019-04-22T18:10:10.704Z,23.80
2019-04-22T18:13:14.018Z,23.50
2019-04-22T18:16:30.525Z,23.40
2019-04-22T18:19:51.875Z,23.10
2019-04-22T18:23:09.649Z,22.90
2019-04-22T18:26:49.754Z,22.70
2019-04-22T18:30:09.234Z,22.60
2019-04-22T18:33:37.115Z,22.40
2019-04-22T18:37:01.682Z,22.20
2019-04-22T18:40:30.975Z,22.00
2019-04-22T18:43:58.777Z,21.80
2019-04-22T18:47:18.585Z,21.60
2019-04-22T18:50:56.289Z,21.50
2019-04-22T18:54:36.234Z,21.30
2019-04-22T18:57:59.110Z,21.10
2019-04-22T19:01:10.251Z,21.00
2019-04-22T19:04:44.362Z,20.90
2019-04-22T19:08:29.256Z,20.80
2019-04-22T19:12:01.797Z,20.70
2019-04-22T19:15:22.657Z,20.60
2019-04-22T19:18:41.505Z,20.50
2019-04-22T19:22:02.209Z,20.40
2019-04-22T19:25:23.897Z,20.30
2019-04-22T19:28:58.794Z,20.20
2019-04-22T19:32:21.104Z,20.10
2019-04-22T19:35:40.049Z,20.00
2019-04-22T19:39:07.998Z,19.80
2019-04-22T19:46:00.453Z,19.60
2019-04-22T19:49:33.328Z,19.60
2019-04-22T19:52:50.046Z,19.50
2019-04-22T19:56:14.737Z,19.40
2019-04-22T19:59:45.501Z,19.40
2019-04-22T20:03:37.707Z,19.30
2019-04-22T20:06:53.394Z,19.20
2019-04-22T20:10:26.512Z,19.10
2019-04-22T20:13:55.734Z,19.00
2019-04-22T20:17:18.704Z,18.80
2019-04-22T20:20:44.654Z,18.70
2019-04-22T20:23:55.933Z,18.60
2019-04-22T20:27:39.248Z,18.50
2019-04-22T20:30:55.494Z,18.50
2019-04-22T20:34:23.929Z,18.50
2019-04-22T20:37:54.878Z,18.40
2019-04-22T20:41:15.017Z,18.30
2019-04-22T20:44:47.291Z,18.20
2019-04-22T20:47:58.809Z,18.20
2019-04-22T20:51:45.912Z,18.00
2019-04-22T20:54:55.983Z,18.00
2019-04-22T20:58:21.246Z,17.90
2019-04-22T21:01:43.238Z,17.80
2019-04-22T21:05:00.155Z,17.80
2019-04-22T21:08:38.952Z,17.70
2019-04-22T21:11:57.773Z,17.50
2019-04-22T21:15:36.860Z,17.40
2019-04-22T21:18:46.296Z,17.30
2019-04-22T21:22:27.297Z,17.20
2019-04-22T21:25:39.601Z,17.20
2019-04-22T21:29:14.718Z,17.10
2019-04-22T21:32:42.036Z,17.00
2019-04-22T21:36:16.240Z,16.90
2019-04-22T21:39:27.459Z,16.80
2019-04-22T21:43:01.041Z,16.80
2019-04-22T21:46:22.333Z,16.70
2019-04-22T21:49:51.397Z,16.60
2019-04-22T21:53:14.495Z,16.40
2019-04-22T21:57:16.984Z,16.30
2019-04-22T22:00:43.230Z,16.30
2019-04-22T22:04:06.616Z,16.20
2019-04-22T22:07:13.561Z,16.20
2019-04-22T22:10:56.853Z,16.20
2019-04-22T22:14:16.720Z,16.20
2019-04-22T22:17:35.370Z,16.10
2019-04-22T22:21:30.928Z,16.00
2019-04-22T22:24:35.914Z,16.00
2019-04-22T22:28:00.955Z,15.90
2019-04-22T22:31:31.382Z,15.90
2019-04-22T22:34:52.077Z,15.80
2019-04-22T22:38:13.440Z,15.70
2019-04-22T22:41:18.407Z,15.70
2019-04-22T22:44:46.741Z,15.70
2019-04-22T22:48:34.875Z,15.50
2019-04-22T22:52:03.561Z,15.40
2019-04-22T22:55:22.262Z,15.30
2019-04-22T22:58:50.369Z,15.40
2019-04-22T23:02:09.657Z,15.30
2019-04-22T23:05:40.213Z,15.20
2019-04-22T23:09:04.449Z,15.10
2019-04-22T23:12:34.762Z,15.00
2019-04-22T23:15:47.732Z,15.00
2019-04-22T23:19:02.017Z,14.90
2019-04-22T23:22:36.147Z,14.80
2019-04-22T23:26:11.877Z,14.70
2019-04-22T23:29:47.540Z,14.60
2019-04-22T23:33:21.814Z,14.60
2019-04-22T23:37:04.385Z,14.50
2019-04-22T23:40:37.117Z,14.30
2019-04-22T23:44:02.061Z,14.30
2019-04-22T23:47:24.279Z,14.20
2019-04-22T23:50:54.146Z,14.20
2019-04-22T23:54:23.974Z,14.20
2019-04-22T23:57:46.571Z,14.10
